createdAt,value
2022-11-29T00:00:29.047Z,8.38
2022-11-29T00:05:38.135Z,8.37
2022-11-29T00:10:47.914Z,8.48
2022-11-29T00:15:56.370Z,8.48
2022-11-29T00:21:06.130Z,8.5
2022-11-29T00:26:15.893Z,8.5
2022-11-29T00:31:25.648Z,8.51
2022-11-29T00:36:34.162Z,8.51
2022-11-29T00:41:42.615Z,8.46
2022-11-29T00:46:54.927Z,8.46
2022-11-29T00:52:05.179Z,8.61
2022-11-29T00:57:20.060Z,8.61
2022-11-29T01:03:04.556Z,8.6
2022-11-29T01:08:13.704Z,8.6
2022-11-29T01:13:22.137Z,8.67
2022-11-29T01:18:31.253Z,8.67
2022-11-29T01:23:41.477Z,8.58
2022-11-29T01:29:00.223Z,8.58
2022-11-29T01:34:17.639Z,8.34
2022-11-29T01:39:34.276Z,8.34
2022-11-29T01:44:50.435Z,8.2
2022-11-29T01:50:07.886Z,8.2
2022-11-29T01:55:25.321Z,8.11
2022-11-29T02:00:42.764Z,8.11
2022-11-29T02:05:59.714Z,8.05
2022-11-29T02:11:17.156Z,8.05
2022-11-29T02:16:33.448Z,8.06
2022-11-29T02:20:58.938Z,8.06
2022-11-29T02:25:31.083Z,8.2
2022-11-29T02:30:41.183Z,8.2
2022-11-29T02:35:50.604Z,8.1
2022-11-29T02:41:01.036Z,8.1
2022-11-29T02:46:11.822Z,8.22
2022-11-29T02:51:23.425Z,8.45
2022-11-29T02:56:38.985Z,8.45
2022-11-29T03:01:54.500Z,8.41
2022-11-29T03:07:09.981Z,8.41
2022-11-29T03:12:25.507Z,8.39
2022-11-29T03:17:40.420Z,8.39
2022-11-29T03:22:57.200Z,8.32
2022-11-29T03:28:11.423Z,8.32
2022-11-29T03:33:27.586Z,8.41
2022-11-29T03:38:43.132Z,8.41
2022-11-29T03:43:57.356Z,8.76
2022-11-29T03:49:14.160Z,8.76
2022-11-29T03:54:29.670Z,9.21
2022-11-29T03:59:44.540Z,9.21
2022-11-29T04:04:10.100Z,8.66
2022-11-29T04:08:41.199Z,8.66
2022-11-29T04:13:50.936Z,8.55
2022-11-29T04:19:00.695Z,8.55
2022-11-29T04:24:09.171Z,8.78
2022-11-29T04:29:18.928Z,8.78
2022-11-29T04:34:28.705Z,8.86
2022-11-29T04:39:37.172Z,8.86
2022-11-29T04:44:47.766Z,9
2022-11-29T04:49:57.332Z,9
2022-11-29T04:55:07.102Z,8.63
2022-11-29T05:00:16.849Z,8.63
2022-11-29T05:05:26.609Z,8.78
2022-11-29T05:10:35.787Z,8.78
2022-11-29T05:15:44.500Z,8.81
2022-11-29T05:20:53.306Z,8.81
2022-11-29T05:26:02.451Z,9.14
2022-11-29T05:31:12.410Z,9.14
2022-11-29T05:36:20.696Z,9.15
2022-11-29T05:41:31.076Z,9.15
2022-11-29T05:46:39.878Z,8.6
2022-11-29T05:51:50.487Z,9.69
2022-11-29T05:57:06.016Z,9.69
2022-11-29T06:02:21.545Z,9.41
2022-11-29T06:07:37.688Z,9.41
2022-11-29T06:12:53.841Z,9.29
2022-11-29T06:18:10.016Z,9.29
2022-11-29T06:23:25.498Z,9.39
2022-11-29T06:28:40.419Z,9.39
2022-11-29T06:39:10.800Z,9.07
2022-11-29T06:44:25.659Z,9.26
2022-11-29T06:49:40.610Z,9.26
2022-11-29T06:54:55.434Z,8.98
2022-11-29T07:00:10.945Z,8.98
2022-11-29T07:04:40.033Z,9.02
2022-11-29T07:09:07.402Z,9.02
2022-11-29T07:14:18.140Z,9.08
2022-11-29T07:19:34.335Z,9.08
2022-11-29T07:24:50.469Z,9.21
2022-11-29T07:30:06.627Z,9.21
2022-11-29T07:35:22.785Z,9.44
2022-11-29T07:40:38.333Z,9.44
2022-11-29T07:45:53.186Z,9.67
2022-11-29T07:51:09.347Z,9.67
2022-11-29T07:56:25.531Z,9.68
2022-11-29T08:01:41.713Z,9.68
2022-11-29T08:06:57.198Z,9.87
2022-11-29T08:12:14.629Z,9.87
2022-11-29T08:16:40.302Z,9.58
2022-11-29T08:21:14.501Z,9.58
2022-11-29T08:26:32.254Z,8.95
2022-11-29T08:31:33.539Z,8.95
2022-11-29T08:36:42.453Z,9.35
2022-11-29T08:41:52.859Z,9.35
2022-11-29T08:47:01.970Z,9.23
2022-11-29T08:52:12.484Z,9.23
2022-11-29T08:57:41.824Z,9.13
2022-11-29T09:02:32.118Z,9.06
2022-11-29T09:07:42.653Z,9.06
2022-11-29T09:12:52.706Z,9.07
2022-11-29T09:18:01.201Z,9.07
2022-11-29T09:23:10.317Z,9.29
2022-11-29T09:28:23.196Z,9.29
2022-11-29T09:33:42.360Z,9.06
2022-11-29T09:38:58.448Z,9.06
2022-11-29T09:44:15.410Z,9.51
2022-11-29T09:49:32.213Z,9.51
2022-11-29T09:54:48.295Z,9.41
2022-11-29T10:00:03.892Z,9.41
2022-11-29T10:05:22.041Z,9.31
2022-11-29T10:10:38.917Z,9.31
2022-11-29T10:15:54.935Z,9.33
2022-11-29T10:21:12.365Z,9.33
2022-11-29T10:26:34.915Z,9.15
2022-11-29T10:30:14.657Z,9.15
2022-11-29T10:35:23.749Z,9.49
2022-11-29T10:40:32.237Z,9.49
2022-11-29T10:45:42.412Z,9.7
2022-11-29T10:50:51.750Z,9.7
2022-11-29T10:56:00.881Z,9.71
2022-11-29T11:01:10.343Z,9.71
2022-11-29T11:06:19.101Z,9.49
2022-11-29T11:11:28.239Z,9.49
2022-11-29T11:16:38.297Z,9.24
2022-11-29T11:21:46.452Z,9.24
2022-11-29T11:26:54.947Z,9.32
2022-11-29T11:32:03.653Z,9.32
2022-11-29T11:37:13.191Z,9.33
2022-11-29T11:42:22.307Z,9.33
2022-11-29T11:47:55.764Z,9.75
2022-11-29T11:52:51.049Z,9.75
2022-11-29T11:58:09.667Z,9.83
2022-11-29T12:03:21.705Z,9.7
2022-11-29T12:13:57.957Z,10
2022-11-29T12:19:14.733Z,10
2022-11-29T12:27:00.004Z,10.12
2022-11-29T12:28:26.473Z,10.12
2022-11-29T12:31:46.828Z,10.12
2022-11-29T12:33:16.721Z,10.12
2022-11-29T12:37:04.246Z,10.4
2022-11-29T12:38:34.149Z,10.4
2022-11-29T12:42:19.114Z,10.4
2022-11-29T12:49:21.585Z,10.8
2022-11-29T12:56:12.198Z,10.15
2022-11-29T12:57:02.233Z,10.15
2022-11-29T13:01:31.710Z,10.15
2022-11-29T13:02:21.662Z,10.15
2022-11-29T13:06:49.324Z,11.35
2022-11-29T13:07:39.384Z,11.35
2022-11-29T13:12:06.604Z,11.35
2022-11-29T13:12:56.611Z,11.35
2022-11-29T13:17:51.557Z,11.19
2022-11-29T13:18:41.560Z,11.19
2022-11-29T13:22:51.557Z,11.19
2022-11-29T13:24:09.309Z,11.19
2022-11-29T13:27:55.836Z,11.16
2022-11-29T13:28:45.837Z,11.16
2022-11-29T13:33:14.272Z,11.16
2022-11-29T13:34:04.280Z,11.16
2022-11-29T13:38:30.592Z,10.93
2022-11-29T13:39:53.242Z,10.93
2022-11-29T13:44:52.062Z,10.93
2022-11-29T13:45:40.817Z,10.93
2022-11-29T13:50:49.822Z,10.93
2022-11-29T14:15:39.363Z,11.05
2022-11-29T14:16:19.992Z,11.05
2022-11-29T14:21:05.487Z,11.05
2022-11-29T14:21:45.414Z,11.05
2022-11-29T14:26:29.696Z,11.58
2022-11-29T14:27:06.733Z,11.58
2022-11-29T14:31:37.377Z,11.58
2022-11-29T14:32:17.143Z,11.58
2022-11-29T14:36:52.054Z,11.16
2022-11-29T14:37:31.989Z,11.16
2022-11-29T14:42:08.219Z,11.16
2022-11-29T14:42:48.157Z,11.16
2022-11-29T14:47:26.922Z,10.85
2022-11-29T14:52:32.380Z,10.85
2022-11-29T14:57:49.709Z,11.38
2022-11-29T15:03:05.648Z,11.38
2022-11-29T15:13:41.332Z,11.11
2022-11-29T15:14:31.323Z,11.11
2022-11-29T15:24:16.684Z,11
2022-11-29T15:25:06.676Z,11
2022-11-29T15:34:51.171Z,10.53
2022-11-29T15:35:41.163Z,10.53
2022-11-29T15:45:27.478Z,10.76
2022-11-29T15:46:17.527Z,10.76
2022-11-29T15:56:03.410Z,10.62
2022-11-29T15:56:53.413Z,10.62
2022-11-29T16:06:38.968Z,10.76
2022-11-29T16:12:10.804Z,10.76
2022-11-29T16:17:20.878Z,10.49
2022-11-29T16:18:03.646Z,10.49
2022-11-29T16:22:38.289Z,10.49
2022-11-29T16:23:20.760Z,10.49
2022-11-29T16:27:54.473Z,10.18
2022-11-29T16:28:36.603Z,10.18
2022-11-29T16:33:15.130Z,10.18
2022-11-29T16:34:09.563Z,10.18
2022-11-29T16:39:00.694Z,10.01
2022-11-29T16:43:35.775Z,10.01
2022-11-29T16:48:53.902Z,10.08
2022-11-29T16:54:12.212Z,10.08
2022-11-29T17:04:45.787Z,10.33
2022-11-29T17:10:01.043Z,9.68
2022-11-29T17:15:17.177Z,9.68
2022-11-29T17:20:32.720Z,9.75
2022-11-29T17:25:48.894Z,9.75
2022-11-29T17:31:05.025Z,9.91
2022-11-29T17:31:55.107Z,9.91
2022-11-29T17:36:24.540Z,9.59
2022-11-29T17:37:10.550Z,9.59
2022-11-29T17:41:41.381Z,9.59
2022-11-29T18:07:51.112Z,10.13
2022-11-29T18:23:38.308Z,9.65
2022-11-29T18:28:53.220Z,9.95
2022-11-29T18:29:45.711Z,9.95
2022-11-29T18:34:24.854Z,10.03
2022-11-29T18:35:12.633Z,10.03
2022-11-29T18:40:18.803Z,10.03
2022-11-29T18:49:55.908Z,10.11
2022-11-29T18:55:12.062Z,10.11
2022-11-29T19:00:26.976Z,9.64
2022-11-29T19:05:42.580Z,9.64
2022-11-29T19:13:42.877Z,9.92
2022-11-29T19:18:11.417Z,10.52
2022-11-29T19:18:51.337Z,10.52
2022-11-29T19:23:26.936Z,10.52
2022-11-29T19:25:46.857Z,10.52
2022-11-29T19:30:20.075Z,10.33
2022-11-29T19:31:10.078Z,10.33
2022-11-29T19:35:34.342Z,10.31
2022-11-29T19:43:34.614Z,10.31
2022-11-29T19:44:14.543Z,10.31
2022-11-29T19:49:02.935Z,10.66
2022-11-29T19:49:46.521Z,10.66
2022-11-29T19:54:19.715Z,10.66
2022-11-29T19:54:59.652Z,10.66
2022-11-29T19:59:36.526Z,10.46
2022-11-29T20:00:16.462Z,10.46
2022-11-29T20:04:55.259Z,10.65
2022-11-29T20:08:55.183Z,10.65
2022-11-29T20:14:02.942Z,10.65
2022-11-29T20:19:18.117Z,10.49
2022-11-29T20:20:08.150Z,10.49
2022-11-29T20:24:39.167Z,10.49
2022-11-29T20:25:23.975Z,10.49
2022-11-29T20:29:49.079Z,10.3
2022-11-29T20:33:24.383Z,10.3
2022-11-29T20:38:39.268Z,11.11
2022-11-29T20:45:34.153Z,10.74
2022-11-29T20:46:24.180Z,10.74
2022-11-29T20:50:50.307Z,10.74
2022-11-29T20:51:41.503Z,10.74
2022-11-29T20:56:51.411Z,10.85
2022-11-29T20:57:31.340Z,10.85
2022-11-29T21:02:09.487Z,10.85
2022-11-29T21:02:49.412Z,10.85
2022-11-29T21:07:26.039Z,10.1
2022-11-29T21:08:05.672Z,10.1
2022-11-29T21:12:42.444Z,10.1
2022-11-29T21:13:22.381Z,10.1
2022-11-29T21:17:57.987Z,10.35
2022-11-29T21:18:37.901Z,10.35
2022-11-29T21:23:14.160Z,10.35
2022-11-29T21:23:54.065Z,10.35
2022-11-29T21:28:29.649Z,10.42
2022-11-29T21:29:09.588Z,10.42
2022-11-29T21:33:45.807Z,10.42
2022-11-29T21:34:25.744Z,10.42
2022-11-29T21:39:05.785Z,10.19
2022-11-29T21:45:16.532Z,10.56
2022-11-29T21:46:39.510Z,10.56
2022-11-29T21:50:43.414Z,10.56
2022-11-29T21:52:16.491Z,10.56
2022-11-29T21:55:58.973Z,10.84
2022-11-29T21:57:28.897Z,10.84
2022-11-29T22:01:14.903Z,10.84
2022-11-29T22:02:44.662Z,10.84
2022-11-29T22:06:32.528Z,10.96
2022-11-29T22:08:52.464Z,10.96
2022-11-29T22:11:48.707Z,10.96
2022-11-29T22:14:08.628Z,10.96
2022-11-29T22:17:44.158Z,10.82
2022-11-29T22:19:24.156Z,10.82
2022-11-29T22:22:59.665Z,10.82
2022-11-29T22:24:39.665Z,10.82
2022-11-29T22:28:15.186Z,11.13
2022-11-29T22:29:55.183Z,11.13
2022-11-29T22:33:31.351Z,11.13
2022-11-29T22:35:11.350Z,11.13
2022-11-29T22:38:46.232Z,11.31
2022-11-29T22:40:26.231Z,11.31
2022-11-29T22:44:52.385Z,11.31
2022-11-29T22:45:42.388Z,11.31
2022-11-29T22:50:08.920Z,11.48
2022-11-29T22:50:58.906Z,11.48
2022-11-29T22:55:24.062Z,11.48
2022-11-29T22:56:14.071Z,11.48
2022-11-29T23:00:39.680Z,11.93
2022-11-29T23:01:29.582Z,11.93
2022-11-29T23:05:54.495Z,11.93
2022-11-29T23:06:44.512Z,11.93
2022-11-29T23:11:09.344Z,11.58
2022-11-29T23:11:59.346Z,11.58
2022-11-29T23:16:26.807Z,11.6
2022-11-29T23:17:16.742Z,11.6
2022-11-29T23:21:41.695Z,11.6
2022-11-29T23:22:31.689Z,11.6
2022-11-29T23:26:56.546Z,11.62
2022-11-29T23:27:46.546Z,11.62
2022-11-29T23:32:12.106Z,11.62
2022-11-29T23:33:02.100Z,11.62
2022-11-29T23:37:26.944Z,12.35
2022-11-29T23:38:16.945Z,12.35
2022-11-29T23:42:47.053Z,12.35
2022-11-29T23:43:33.738Z,12.35
2022-11-29T23:47:59.299Z,12.01
2022-11-29T23:48:49.300Z,12.01
2022-11-29T23:53:14.774Z,12.01
2022-11-29T23:54:04.782Z,12.01
2022-11-29T23:58:29.665Z,11.64
2022-11-29T23:59:19.662Z,11.64
